KETN/ETN METAR and TAF weather

Enter ICAO airport designator
Station Type Date Time Source
KETN METAR 2019/04/19 08:15 UTC NOAA

KETN 190815Z AUTO 32007KT 10SM CLR 12/04 A3007 RMK AO2 T01170041


Station Type Date Time Source
KETN Decoded METAR 2019/04/19 08:15 UTC NOAA

Station name not available
Apr 19, 2019 - 04:15 AM EDT / 2019.04.19 0815 UTC
Wind: from the NW (320 degrees) at 8 MPH (7 KT):0
Visibility: 10 mile(s):0
Sky conditions: clear
Temperature: 53.1 F (11.7 C)
Dew Point: 39.4 F (4.1 C)
Relative Humidity: 59%
Pressure (altimeter): 30.07 in. Hg (1018 hPa)
ob: KETN 190815Z AUTO 32007KT 10SM CLR 12/04 A3007 RMK AO2 T01170041
cycle: 8

Station Type Date Time Source
KETN TAF UTC NOAA

Error!

Example: see airport list